Terminal Aerodrome Forecast
Issued by NWS Bismarck, ND

Home | Current Version | Previous Version | Text Only | Print | Product List | Glossary On
Versions: 1 2 3 4 5 6 7 8 9 10 11 12 13 14 15
000
FTUS43 KBIS 281100
TAFISN
TAF
KISN 281124Z 2812/2912 18003KT P6SM VCFG SCT002 SCT090
     FM281500 23009KT P6SM SCT090
     FM282300 27009KT P6SM SCT100
     FM290300 30007KT P6SM SCT070
     FM290900 34011KT P6SM SCT015 BKN070=

USA.gov is the U.S. government's official web portal to all federal, state and local government web resources and services.